Details From KCHA - Lovell Field
To KDNN - DALTON MUNI
Flight Number -
Tags decoded
Created
Modified
Stats Distance 25 nm / 46 km
Max Altitude 0 ft / 0 m
Waypoints 2
Social Downloads 1
Likes 0
Share VATSIM

Download

Looking for another format? Having issues loading an existing format? Contact us
Advertisement - Login to hide

Notes

Requested: KCHA KDNN

Route

KCHA KDNN

ID Type Via Altitude Latitude Longitude Leg Dist Tot Dist Heading (true) Name
O KCHA APT - 0 ft / 0 m 35.03565˚ -85.20349˚ - 0 nm - Lovell Field
O KDNN APT - 0 ft / 0 m 34.72294˚ -84.87024˚ 24 nm 24 nm 139° / 139° DALTON MUNI

Altitude Profile

Advertisement - Login to hide

KCHA

Details ICAO KCHA (CHA)
Name Lovell Field
Region United States
Timezone America/New_York (UTC-5.0)
Stats Elevation 683 ft / 208 m (AMSL)
Location 35.035654° -85.203491°
Runways 2
Magnetic Variation 4.748° W

METAR

KCHA 181953Z 22006KT 10SM SCT016 SCT065 BKN250 13/09 A3016 RMK AO2 SLP212 T01330089

Decode

TAF

TAF KCHA 181734Z 1818/1918 00000KT 3SM BR SCT004 OVC014 FM181900 18003KT 5SM BR OVC010 FM182100 19004KT P6SM BKN020 FM190200 00000KT 5SM BR OVC010 FM190600 00000KT 2SM BR OVC005 FM191400 VRB03KT P6SM OVC060

Decode

Departure Runways

ID Width Length Bearing (true) Bearing (mag) Surface Threshold Offset Overrun Length
02 151 ft / 46 m 7,416 ft / 2,260 m 16.63° 21.38° Asphalt 0 ft / 0 m 49 ft / 15 m
15 151 ft / 46 m 5,580 ft / 1,701 m 145.60° 150.35° Asphalt 105 ft / 32 m 0 ft / 0 m
20 151 ft / 46 m 7,416 ft / 2,260 m 196.63° 201.38° Asphalt 0 ft / 0 m 0 ft / 0 m
33 151 ft / 46 m 5,580 ft / 1,701 m 325.61° 330.36° Asphalt 574 ft / 175 m 0 ft / 0 m

KDNN

Details ICAO KDNN (DNN)
Name DALTON MUNI
Region United States
Timezone America/New_York (UTC-5.0)
Stats Elevation 710 ft / 216 m (AMSL)
Location 34.722936° -84.870242°
Runways 1
Magnetic Variation 4.939° W

METAR

KDNN 182015Z AUTO 00000KT 10SM CLR 14/11 A3018 RMK AO2

Decode

TAF

Not found

Destination Runways

ID Width Length Bearing (true) Bearing (mag) Surface Threshold Offset Overrun Length
14 100 ft / 30 m 5,501 ft / 1,677 m 137.13° 142.07° Asphalt 0 ft / 0 m 0 ft / 0 m
32 100 ft / 30 m 5,501 ft / 1,677 m 317.13° 322.07° Asphalt 0 ft / 0 m 0 ft / 0 m

Approach Navaids

Runway Type Ident Frequency Range Bearing (true) Bearing (mag) Slope Elevation
14 Localiser IDNN 110.90 MHz 18 nm / 33 km 137.39° 142.33° - 710 ft / 216 m (AMSL)
14 Glidescope IDNN 110.90 MHz 10 nm / 19 km 137.13° 142.07° 3.00° 704 ft / 215 m (AMSL)